Time;durP1;ratioP1;P1;durP2;ratioP2;P2;SDS_P1;SDS_P2;PMS_P1;PMS_P2;Temp;Humidity;BMP_temperature;BMP_pressure;BME280_temperature;BME280_humidity;BME280_pressure;Samples;Min_cycle;Max_cycle;Signal;HPM_P1;HPM_P2
2021/05/16 00:01:54;;;;;;;9.27;8.32;;;;;;;;;;5096441;28;20096;-64
2021/05/16 00:04:20;;;;;;;6.40;5.90;;;;;;;;;;5096929;28;20020;-65
2021/05/16 00:06:46;;;;;;;9.88;8.15;;;;;;;;;;5097405;28;20060;-65
2021/05/16 00:09:12;;;;;;;9.73;7.25;;;;;;;;;;5096170;28;20111;-64
2021/05/16 00:11:38;;;;;;;12.05;8.15;;;;;;;;;;5095630;28;20028;-64
2021/05/16 00:14:04;;;;;;;8.85;7.70;;;;;;;;;;5095287;28;20358;-64
2021/05/16 00:16:30;;;;;;;9.20;7.60;;;;;;;;;;5095561;28;20036;-63
2021/05/16 00:18:57;;;;;;;8.43;7.00;;;;;;;;;;5096593;28;20035;-64
2021/05/16 00:21:23;;;;;;;10.25;7.80;;;;;;;;;;5096907;28;20031;-63
2021/05/16 00:23:49;;;;;;;10.02;7.65;;;;;;;;;;5096028;28;20024;-64
2021/05/16 00:26:15;;;;;;;15.00;7.70;;;;;;;;;;5096737;28;20484;-64
2021/05/16 00:28:41;;;;;;;14.13;9.63;;;;;;;;;;5096076;28;20020;-65
2021/05/16 00:31:08;;;;;;;12.97;8.00;;;;;;;;;;5094488;28;20039;-64
2021/05/16 00:33:34;;;;;;;9.70;7.53;;;;;;;;;;5094339;28;20146;-63
2021/05/16 00:36:00;;;;;;;10.65;7.70;;;;;;;;;;5075871;28;20373;-62
2021/05/16 00:38:26;;;;;;;10.65;6.47;;;;;;;;;;5094002;28;20027;-62
2021/05/16 00:40:52;;;;;;;10.55;7.65;;;;;;;;;;5094205;28;20024;-64
2021/05/16 00:43:18;;;;;;;10.43;7.50;;;;;;;;;;5093502;28;20059;-64
2021/05/16 00:45:47;;;;;;;9.52;6.93;;;;;;;;;;5095158;28;20024;-64
2021/05/16 00:48:13;;;;;;;9.48;8.02;;;;;;;;;;5096020;28;20017;-64
2021/05/16 00:50:41;;;;;;;8.57;7.78;;;;;;;;;;5095705;28;20412;-64
2021/05/16 00:53:08;;;;;;;7.93;6.55;;;;;;;;;;5095975;28;20054;-64
2021/05/16 00:55:34;;;;;;;9.38;7.28;;;;;;;;;;5095962;28;20016;-64
2021/05/16 00:58:01;;;;;;;7.63;6.93;;;;;;;;;;5095352;28;20023;-63
2021/05/16 01:00:28;;;;;;;8.05;5.28;;;;;;;;;;5095894;28;20024;-63
2021/05/16 01:02:54;;;;;;;6.03;5.32;;;;;;;;;;5078543;28;20414;-63
2021/05/16 01:05:21;;;;;;;8.20;6.38;;;;;;;;;;5095199;28;20544;-63
2021/05/16 01:07:48;;;;;;;9.60;6.28;;;;;;;;;;5095660;28;20024;-62
2021/05/16 01:10:15;;;;;;;6.28;5.78;;;;;;;;;;5095293;28;20358;-62
2021/05/16 01:12:44;;;;;;;8.43;6.05;;;;;;;;;;5095279;28;20103;-64
2021/05/16 01:15:12;;;;;;;6.60;5.28;;;;;;;;;;5095510;28;20103;-63
2021/05/16 01:17:38;;;;;;;6.28;5.13;;;;;;;;;;5095668;28;20024;-63
2021/05/16 01:20:06;;;;;;;6.68;4.85;;;;;;;;;;5095412;28;20024;-63
2021/05/16 01:22:32;;;;;;;7.30;5.65;;;;;;;;;;5095668;28;20019;-63
2021/05/16 01:24:59;;;;;;;9.95;6.63;;;;;;;;;;5095257;28;20020;-62
2021/05/16 01:27:25;;;;;;;7.10;5.43;;;;;;;;;;5095581;28;20028;-63
2021/05/16 01:29:51;;;;;;;6.68;5.88;;;;;;;;;;5095174;28;20036;-64
2021/05/16 01:32:21;;;;;;;7.18;6.05;;;;;;;;;;5076727;28;20029;-62
2021/05/16 01:34:47;;;;;;;6.57;5.82;;;;;;;;;;5095128;28;20024;-63
2021/05/16 01:37:13;;;;;;;7.10;5.90;;;;;;;;;;5095398;28;20016;-63
2021/05/16 01:39:40;;;;;;;6.53;5.88;;;;;;;;;;5094775;28;20245;-63
2021/05/16 01:42:07;;;;;;;6.50;5.95;;;;;;;;;;5095595;28;20016;-64
2021/05/16 01:44:33;;;;;;;8.90;5.43;;;;;;;;;;5095249;28;20465;-64
2021/05/16 01:47:03;;;;;;;5.40;5.00;;;;;;;;;;5094657;28;20028;-63
2021/05/16 01:49:47;;;;;;;7.65;5.40;;;;;;;;;;5094407;28;20086;-63
2021/05/16 01:52:13;;;;;;;6.35;5.82;;;;;;;;;;5094829;28;20384;-64
2021/05/16 01:54:40;;;;;;;5.95;5.22;;;;;;;;;;5093742;28;20028;-63
2021/05/16 01:57:07;;;;;;;8.48;6.85;;;;;;;;;;5094467;28;20056;-64
2021/05/16 01:59:33;;;;;;;7.68;6.97;;;;;;;;;;5094650;28;20028;-63
2021/05/16 02:02:00;;;;;;;6.68;6.00;;;;;;;;;;5094642;28;20372;-63
2021/05/16 02:04:30;;;;;;;9.00;6.57;;;;;;;;;;5094859;28;20024;-63
2021/05/16 02:06:56;;;;;;;6.60;5.95;;;;;;;;;;5094512;28;20027;-63
2021/05/16 02:09:22;;;;;;;6.75;6.15;;;;;;;;;;5094330;28;20380;-63
2021/05/16 02:11:49;;;;;;;6.15;5.63;;;;;;;;;;5094767;28;20025;-64
2021/05/16 02:14:22;;;;;;;7.03;6.38;;;;;;;;;;5094060;28;20051;-63
2021/05/16 02:16:48;;;;;;;7.40;5.85;;;;;;;;;;5094687;28;20016;-63
2021/05/16 02:19:14;;;;;;;8.18;6.03;;;;;;;;;;5094654;28;20047;-65
2021/05/16 02:21:41;;;;;;;8.30;6.10;;;;;;;;;;5094028;28;20109;-64
2021/05/16 02:24:07;;;;;;;6.60;5.95;;;;;;;;;;5094295;28;20558;-64
2021/05/16 02:26:33;;;;;;;6.55;5.95;;;;;;;;;;5094234;28;20024;-63
2021/05/16 02:29:00;;;;;;;8.52;7.60;;;;;;;;;;5093698;28;20016;-64
2021/05/16 02:31:26;;;;;;;6.43;5.82;;;;;;;;;;5094180;28;20488;-65
2021/05/16 02:33:52;;;;;;;7.40;6.60;;;;;;;;;;5094411;28;20032;-65
2021/05/16 02:36:18;;;;;;;7.80;6.55;;;;;;;;;;5093850;28;20020;-64
2021/05/16 02:38:44;;;;;;;6.78;6.18;;;;;;;;;;5094362;28;20031;-67
2021/05/16 02:41:10;;;;;;;7.53;6.45;;;;;;;;;;5094343;28;20031;-65
2021/05/16 02:43:36;;;;;;;6.07;5.57;;;;;;;;;;5093729;28;20026;-64
2021/05/16 02:46:03;;;;;;;6.47;5.70;;;;;;;;;;5094244;28;20035;-64
2021/05/16 02:48:29;;;;;;;9.15;5.93;;;;;;;;;;5093546;28;20103;-63
2021/05/16 02:50:55;;;;;;;7.88;7.10;;;;;;;;;;5093960;28;20159;-63
2021/05/16 02:53:22;;;;;;;8.02;7.30;;;;;;;;;;5093884;28;20082;-63
2021/05/16 02:55:49;;;;;;;6.55;5.90;;;;;;;;;;5093578;28;20100;-63
2021/05/16 02:58:15;;;;;;;6.63;6.03;;;;;;;;;;5094094;28;20085;-63
2021/05/16 03:00:41;;;;;;;8.52;6.05;;;;;;;;;;5093667;28;20477;-65
2021/05/16 03:03:07;;;;;;;7.47;6.78;;;;;;;;;;5093510;28;20461;-63
2021/05/16 03:05:34;;;;;;;7.75;6.35;;;;;;;;;;5094198;28;20073;-63
2021/05/16 03:08:00;;;;;;;10.13;7.88;;;;;;;;;;5098560;28;20369;-64
2021/05/16 03:10:26;;;;;;;9.60;7.05;;;;;;;;;;5079573;28;20427;-64
2021/05/16 03:12:52;;;;;;;7.45;6.60;;;;;;;;;;5097628;28;20031;-64
2021/05/16 03:15:19;;;;;;;8.10;6.78;;;;;;;;;;5098169;28;20020;-64
2021/05/16 03:17:45;;;;;;;6.50;5.90;;;;;;;;;;5097777;28;20468;-64
2021/05/16 03:20:12;;;;;;;6.32;5.25;;;;;;;;;;5097850;28;20034;-64
2021/05/16 03:22:38;;;;;;;6.88;6.28;;;;;;;;;;5097721;28;20097;-65
2021/05/16 03:25:06;;;;;;;6.93;6.38;;;;;;;;;;5097127;28;20020;-64
2021/05/16 03:27:32;;;;;;;6.82;6.13;;;;;;;;;;5097640;28;20176;-64
2021/05/16 03:29:58;;;;;;;6.57;5.88;;;;;;;;;;5097488;28;20028;-65
2021/05/16 03:32:25;;;;;;;7.57;6.97;;;;;;;;;;5097256;28;20058;-64
2021/05/16 03:34:51;;;;;;;8.23;7.15;;;;;;;;;;5097447;28;20095;-64
2021/05/16 03:37:17;;;;;;;7.13;6.28;;;;;;;;;;5097464;28;20118;-65
2021/05/16 03:39:43;;;;;;;8.02;7.20;;;;;;;;;;5097060;28;20484;-64
2021/05/16 03:42:09;;;;;;;9.45;8.32;;;;;;;;;;5097591;28;20107;-63
2021/05/16 03:44:35;;;;;;;7.07;6.57;;;;;;;;;;5097401;28;20028;-63
2021/05/16 03:47:01;;;;;;;8.40;7.70;;;;;;;;;;5096963;28;20012;-64
2021/05/16 03:49:27;;;;;;;7.90;7.28;;;;;;;;;;5096760;28;20047;-63
2021/05/16 03:51:53;;;;;;;9.52;8.70;;;;;;;;;;5097013;28;20032;-66
2021/05/16 03:54:20;;;;;;;7.95;6.97;;;;;;;;;;5097086;28;20472;-65
2021/05/16 03:56:46;;;;;;;7.65;6.68;;;;;;;;;;5096510;28;20024;-66
2021/05/16 03:59:12;;;;;;;7.47;6.87;;;;;;;;;;5096985;28;20110;-64
2021/05/16 04:01:39;;;;;;;8.00;7.32;;;;;;;;;;5097551;28;20020;-67
2021/05/16 04:04:05;;;;;;;9.07;8.23;;;;;;;;;;5096904;28;20490;-65
2021/05/16 04:06:31;;;;;;;10.02;9.10;;;;;;;;;;5096587;28;20055;-66
2021/05/16 04:08:57;;;;;;;9.85;9.05;;;;;;;;;;5096844;28;20027;-64
2021/05/16 04:11:23;;;;;;;8.95;8.23;;;;;;;;;;5096502;28;20035;-64
2021/05/16 04:13:49;;;;;;;9.93;8.60;;;;;;;;;;5096479;28;20099;-64
2021/05/16 04:16:16;;;;;;;7.72;6.93;;;;;;;;;;5096732;28;20024;-64
2021/05/16 04:18:42;;;;;;;8.23;7.47;;;;;;;;;;5095786;28;20537;-64
2021/05/16 04:21:08;;;;;;;8.10;7.50;;;;;;;;;;5096313;28;20055;-65
2021/05/16 04:23:35;;;;;;;10.25;8.82;;;;;;;;;;5096564;28;20050;-65
2021/05/16 04:26:01;;;;;;;8.77;7.97;;;;;;;;;;5097065;28;20020;-65
2021/05/16 04:28:28;;;;;;;10.88;10.00;;;;;;;;;;5096225;28;20236;-64
2021/05/16 04:30:54;;;;;;;7.67;7.00;;;;;;;;;;5096496;28;20024;-65
2021/05/16 04:33:21;;;;;;;10.77;9.37;;;;;;;;;;5096430;28;20245;-65
2021/05/16 04:35:47;;;;;;;13.65;9.50;;;;;;;;;;5096076;28;20016;-65
2021/05/16 04:38:14;;;;;;;9.40;8.20;;;;;;;;;;5096007;28;20024;-65
2021/05/16 04:40:40;;;;;;;8.80;7.72;;;;;;;;;;5096410;28;20369;-64
2021/05/16 04:43:08;;;;;;;9.82;8.90;;;;;;;;;;5095916;28;20031;-66
2021/05/16 04:45:34;;;;;;;;;;;;;;;;;;5096521;28;20016;-65
2021/05/16 04:48:00;;;;;;;67.90;7.75;;;;;;;;;;5095783;28;19910;-65
2021/05/16 04:50:26;;;;;;;40.33;9.73;;;;;;;;;;5096821;28;20060;-64
2021/05/16 04:52:52;;;;;;;16.70;9.18;;;;;;;;;;5095688;28;20381;-65
2021/05/16 04:55:18;;;;;;;22.40;5.60;;;;;;;;;;5095698;28;20027;-66
2021/05/16 04:57:45;;;;;;;21.13;7.60;;;;;;;;;;5096188;28;20021;-66
2021/05/16 05:00:11;;;;;;;14.65;7.93;;;;;;;;;;5095869;28;20031;-66
2021/05/16 05:02:38;;;;;;;17.10;7.18;;;;;;;;;;5095573;28;20020;-65
2021/05/16 05:05:04;;;;;;;;;;;;;;;;;;5095880;28;20400;-66
2021/05/16 05:07:31;;;;;;;13.45;6.43;;;;;;;;;;5095724;28;19957;-69
2021/05/16 05:09:57;;;;;;;15.70;5.05;;;;;;;;;;5094976;28;20028;-64
2021/05/16 05:12:23;;;;;;;18.48;4.57;;;;;;;;;;5095291;28;20024;-65
2021/05/16 05:14:49;;;;;;;9.35;4.43;;;;;;;;;;5095557;28;20027;-65
2021/05/16 05:17:15;;;;;;;22.48;4.90;;;;;;;;;;5095029;28;20035;-67
2021/05/16 05:19:41;;;;;;;9.23;5.13;;;;;;;;;;5095465;28;20024;-66
2021/05/16 05:22:07;;;;;;;8.85;5.95;;;;;;;;;;5095704;28;20024;-67
2021/05/16 05:24:33;;;;;;;10.60;6.65;;;;;;;;;;5096160;28;20372;-67
2021/05/16 05:27:00;;;;;;;16.73;4.18;;;;;;;;;;5095543;28;20035;-68
2021/05/16 05:29:26;;;;;;;10.68;5.43;;;;;;;;;;5093591;28;20499;-67
2021/05/16 05:31:52;;;;;;;10.73;4.50;;;;;;;;;;5095300;28;20036;-67
2021/05/16 05:34:19;;;;;;;7.47;5.90;;;;;;;;;;5095228;28;20020;-67
2021/05/16 05:36:45;;;;;;;12.88;7.75;;;;;;;;;;5095168;28;20476;-68
2021/05/16 05:39:12;;;;;;;8.38;7.68;;;;;;;;;;5094903;28;20027;-67
2021/05/16 05:41:38;;;;;;;13.27;5.03;;;;;;;;;;5076863;28;20016;-67
2021/05/16 05:44:04;;;;;;;9.57;6.20;;;;;;;;;;5094371;28;20016;-67
2021/05/16 05:46:31;;;;;;;12.43;4.43;;;;;;;;;;5094665;28;20023;-67
2021/05/16 05:48:57;;;;;;;9.65;4.65;;;;;;;;;;5094647;28;20040;-67
2021/05/16 05:51:23;;;;;;;12.52;3.83;;;;;;;;;;5076410;28;20042;-67
2021/05/16 05:53:49;;;;;;;7.13;6.32;;;;;;;;;;5095114;28;20027;-67
2021/05/16 05:56:15;;;;;;;5.10;3.45;;;;;;;;;;5094779;28;20062;-66
2021/05/16 05:58:41;;;;;;;9.95;6.63;;;;;;;;;;5094053;28;20476;-66
2021/05/16 06:01:07;;;;;;;8.65;6.38;;;;;;;;;;5094709;28;20471;-68
2021/05/16 06:03:33;;;;;;;6.05;5.03;;;;;;;;;;5094624;28;20467;-64
2021/05/16 06:05:59;;;;;;;6.82;5.70;;;;;;;;;;5093934;28;20031;-64
2021/05/16 06:08:26;;;;;;;7.30;5.82;;;;;;;;;;5094458;28;20049;-65
2021/05/16 06:10:52;;;;;;;6.03;4.82;;;;;;;;;;5094269;28;20032;-63
2021/05/16 06:13:18;;;;;;;10.18;6.05;;;;;;;;;;5093979;28;20028;-64
2021/05/16 06:15:45;;;;;;;7.10;6.40;;;;;;;;;;5094026;28;20028;-64
2021/05/16 06:18:11;;;;;;;6.18;5.63;;;;;;;;;;5094019;28;20035;-65
2021/05/16 06:20:37;;;;;;;6.97;6.10;;;;;;;;;;5093821;28;20020;-67
2021/05/16 06:23:05;;;;;;;7.20;5.45;;;;;;;;;;5094291;28;20381;-68
2021/05/16 06:25:31;;;;;;;4.47;4.10;;;;;;;;;;5093952;28;20024;-67
2021/05/16 06:27:57;;;;;;;7.72;5.70;;;;;;;;;;5094534;28;20024;-67
2021/05/16 06:30:24;;;;;;;6.30;5.10;;;;;;;;;;5094300;28;20058;-68
2021/05/16 06:32:50;;;;;;;5.88;4.72;;;;;;;;;;5093678;28;20099;-67
2021/05/16 06:35:16;;;;;;;8.35;7.18;;;;;;;;;;5094146;28;20024;-68
2021/05/16 06:37:42;;;;;;;7.45;6.70;;;;;;;;;;5093906;28;20089;-67
2021/05/16 06:40:11;;;;;;;6.03;5.20;;;;;;;;;;5093636;28;20032;-68
2021/05/16 06:42:37;;;;;;;5.85;4.53;;;;;;;;;;5094258;28;20020;-68
2021/05/16 06:45:03;;;;;;;4.35;3.95;;;;;;;;;;5093255;28;20113;-68
2021/05/16 06:47:29;;;;;;;4.30;3.90;;;;;;;;;;5093740;28;20042;-69
2021/05/16 06:49:55;;;;;;;3.22;2.97;;;;;;;;;;5075409;28;20357;-68
2021/05/16 06:52:22;;;;;;;5.30;2.67;;;;;;;;;;5093883;28;20176;-67
2021/05/16 06:54:49;;;;;;;4.97;3.92;;;;;;;;;;5093302;28;20481;-68
2021/05/16 06:57:19;;;;;;;8.10;5.50;;;;;;;;;;5093786;28;20052;-68
2021/05/16 06:59:48;;;;;;;4.85;3.75;;;;;;;;;;5093346;28;20028;-69
2021/05/16 07:02:14;;;;;;;5.30;3.17;;;;;;;;;;5093533;28;20028;-67
2021/05/16 07:04:42;;;;;;;3.90;3.50;;;;;;;;;;5093138;28;20074;-68
2021/05/16 07:07:08;;;;;;;4.28;3.78;;;;;;;;;;5092779;28;20423;-66
2021/05/16 07:09:34;;;;;;;3.33;3.08;;;;;;;;;;5093398;28;20050;-69
2021/05/16 07:12:00;;;;;;;1.67;1.58;;;;;;;;;;5093022;28;20099;-66
2021/05/16 07:14:27;;;;;;;4.32;1.40;;;;;;;;;;5093392;28;20020;-67
2021/05/16 07:16:53;;;;;;;5.72;1.70;;;;;;;;;;5093406;28;20024;-66
2021/05/16 07:19:19;;;;;;;5.50;2.08;;;;;;;;;;5094067;28;20027;-66
2021/05/16 07:21:45;;;;;;;1.33;0.85;;;;;;;;;;5092905;28;20021;-68
2021/05/16 07:24:11;;;;;;;2.00;0.70;;;;;;;;;;5090528;28;20028;-68
2021/05/16 07:26:37;;;;;;;1.58;0.98;;;;;;;;;;5093084;28;20511;-69
2021/05/16 07:29:05;;;;;;;2.90;1.33;;;;;;;;;;5092662;28;20031;-69
2021/05/16 07:31:32;;;;;;;1.30;0.55;;;;;;;;;;5091942;28;20020;-67
2021/05/16 07:33:58;;;;;;;1.38;0.65;;;;;;;;;;5090960;28;20036;-69
2021/05/16 07:36:24;;;;;;;1.13;1.05;;;;;;;;;;5090597;28;20017;-68
2021/05/16 07:38:50;;;;;;;1.08;1.08;;;;;;;;;;5092470;28;20016;-68
2021/05/16 07:41:16;;;;;;;0.70;0.70;;;;;;;;;;5092199;28;20020;-68
2021/05/16 07:43:43;;;;;;;0.80;0.80;;;;;;;;;;5091858;28;20024;-68
2021/05/16 07:46:09;;;;;;;3.53;1.10;;;;;;;;;;5092877;28;20024;-68
2021/05/16 07:48:35;;;;;;;1.20;0.85;;;;;;;;;;5092516;28;20100;-68
2021/05/16 07:51:02;;;;;;;2.10;1.17;;;;;;;;;;5092719;28;20035;-69
2021/05/16 07:53:28;;;;;;;1.50;1.40;;;;;;;;;;5095129;28;20441;-68
2021/05/16 07:55:55;;;;;;;4.63;2.17;;;;;;;;;;5096808;28;20027;-69
2021/05/16 07:58:21;;;;;;;4.47;2.28;;;;;;;;;;5096427;28;20426;-68
2021/05/16 08:00:47;;;;;;;2.60;2.38;;;;;;;;;;5097048;28;20032;-69
2021/05/16 08:03:13;;;;;;;3.83;2.00;;;;;;;;;;5097024;28;20027;-68
2021/05/16 08:05:39;;;;;;;3.35;2.97;;;;;;;;;;5096678;28;20031;-69
2021/05/16 08:08:06;;;;;;;3.88;2.67;;;;;;;;;;5096578;28;20016;-68
2021/05/16 08:10:32;;;;;;;8.27;2.45;;;;;;;;;;5096966;28;20020;-67
2021/05/16 08:12:58;;;;;;;7.57;3.08;;;;;;;;;;5078657;28;20031;-68
2021/05/16 08:15:25;;;;;;;1.85;1.65;;;;;;;;;;5079418;28;20450;-68
2021/05/16 08:17:52;;;;;;;4.25;1.85;;;;;;;;;;5096449;28;20027;-68
2021/05/16 08:20:18;;;;;;;1.92;1.83;;;;;;;;;;5096373;28;20442;-67
2021/05/16 08:22:44;;;;;;;6.10;2.33;;;;;;;;;;5096689;28;20115;-68
2021/05/16 08:25:12;;;;;;;4.63;1.70;;;;;;;;;;5096479;28;20024;-70
2021/05/16 08:27:39;;;;;;;2.50;2.28;;;;;;;;;;5096778;28;20024;-69
2021/05/16 08:30:06;;;;;;;2.88;2.38;;;;;;;;;;5096638;28;20055;-69
2021/05/16 08:32:32;;;;;;;6.85;3.55;;;;;;;;;;5096276;28;20480;-68
2021/05/16 08:34:58;;;;;;;18.92;14.13;;;;;;;;;;5096164;28;20036;-69
2021/05/16 08:37:24;;;;;;;16.13;12.43;;;;;;;;;;5077876;28;20028;-68
2021/05/16 08:39:50;;;;;;;7.07;4.43;;;;;;;;;;5096092;28;20107;-69
2021/05/16 08:42:17;;;;;;;11.20;4.78;;;;;;;;;;5096527;28;20107;-69
2021/05/16 08:44:43;;;;;;;4.68;2.78;;;;;;;;;;5096208;28;20123;-70
2021/05/16 08:47:09;;;;;;;3.42;1.75;;;;;;;;;;5096076;28;20020;-69
2021/05/16 08:49:36;;;;;;;2.03;0.95;;;;;;;;;;5095632;28;20119;-68
2021/05/16 08:52:02;;;;;;;2.08;1.45;;;;;;;;;;5096100;28;20039;-68
2021/05/16 08:54:29;;;;;;;4.15;2.10;;;;;;;;;;5095483;28;20350;-67
2021/05/16 08:56:55;;;;;;;2.70;1.70;;;;;;;;;;5095664;28;20046;-68
2021/05/16 08:59:23;;;;;;;3.63;1.73;;;;;;;;;;5095959;28;20035;-69
2021/05/16 09:01:50;;;;;;;2.53;1.70;;;;;;;;;;5095937;28;20032;-68
2021/05/16 09:04:23;;;;;;;3.55;1.33;;;;;;;;;;5095329;28;20016;-68
2021/05/16 09:06:56;;;;;;;3.35;0.70;;;;;;;;;;5095739;28;20017;-67
2021/05/16 09:09:33;;;;;;;2.85;0.77;;;;;;;;;;5096265;28;20023;-69
2021/05/16 09:11:59;;;;;;;;;;;;;;;;;;5095834;28;20046;-67
2021/05/16 09:14:41;;;;;;;1.55;0.47;;;;;;;;;;5095657;28;20349;-68
2021/05/16 09:17:20;;;;;;;0.90;0.68;;;;;;;;;;5094978;28;20028;-67
2021/05/16 09:19:50;;;;;;;3.97;1.20;;;;;;;;;;5095514;28;20032;-68
2021/05/16 09:22:34;;;;;;;3.22;1.00;;;;;;;;;;5095803;28;20021;-69
2021/05/16 09:25:20;;;;;;;2.58;0.70;;;;;;;;;;5076895;28;20109;-68
2021/05/16 09:27:47;;;;;;;3.47;1.08;;;;;;;;;;5077236;28;20073;-68
2021/05/16 09:30:16;;;;;;;7.43;3.05;;;;;;;;;;5095203;28;20388;-67
2021/05/16 09:32:49;;;;;;;2.50;2.03;;;;;;;;;;5094713;28;20031;-69
2021/05/16 09:35:15;;;;;;;4.60;3.17;;;;;;;;;;5095470;28;20020;-68
2021/05/16 09:37:58;;;;;;;4.60;2.47;;;;;;;;;;5095498;28;20555;-68
2021/05/16 09:40:25;;;;;;;6.97;4.85;;;;;;;;;;5094831;28;20032;-69
2021/05/16 09:43:11;;;;;;;7.72;1.83;;;;;;;;;;5095629;28;20492;-68
2021/05/16 09:45:41;;;;;;;8.63;5.30;;;;;;;;;;5095398;28;20058;-68
2021/05/16 09:48:17;;;;;;;5.97;2.08;;;;;;;;;;5095029;28;20081;-66
2021/05/16 09:50:44;;;;;;;5.00;1.85;;;;;;;;;;5095263;28;20071;-68
2021/05/16 09:53:10;;;;;;;2.85;1.23;;;;;;;;;;5094751;28;20106;-68
2021/05/16 09:55:37;;;;;;;3.35;1.13;;;;;;;;;;5076650;28;20468;-68
2021/05/16 09:58:04;;;;;;;3.78;1.73;;;;;;;;;;5095052;28;20392;-69
2021/05/16 10:00:30;;;;;;;3.58;1.20;;;;;;;;;;5094404;28;20020;-67
2021/05/16 10:02:56;;;;;;;4.35;0.98;;;;;;;;;;5095506;28;20016;-68
2021/05/16 10:05:22;;;;;;;3.08;1.05;;;;;;;;;;5094765;28;20346;-68
2021/05/16 10:07:48;;;;;;;4.13;0.75;;;;;;;;;;5094095;28;20081;-67
2021/05/16 10:10:15;;;;;;;6.88;1.80;;;;;;;;;;5094228;28;20556;-67
2021/05/16 10:12:42;;;;;;;6.27;1.33;;;;;;;;;;5094866;28;20024;-68
2021/05/16 10:15:16;;;;;;;1.10;0.70;;;;;;;;;;5093835;28;20016;-68
2021/05/16 10:17:43;;;;;;;2.47;0.60;;;;;;;;;;5094464;28;20555;-67
2021/05/16 10:20:10;;;;;;;2.22;0.80;;;;;;;;;;5094305;28;20024;-69
2021/05/16 10:22:38;;;;;;;2.85;0.68;;;;;;;;;;5094652;28;20024;-68
2021/05/16 10:25:05;;;;;;;1.13;0.52;;;;;;;;;;5094351;28;20027;-68
2021/05/16 10:27:33;;;;;;;2.22;0.77;;;;;;;;;;5094035;28;20046;-68
2021/05/16 10:29:59;;;;;;;1.63;0.93;;;;;;;;;;5094165;28;20031;-69
2021/05/16 10:32:32;;;;;;;2.50;0.30;;;;;;;;;;5093952;28;20096;-67
2021/05/16 10:34:58;;;;;;;2.17;0.82;;;;;;;;;;5094491;28;20017;-68
2021/05/16 10:37:37;;;;;;;4.38;0.57;;;;;;;;;;5076517;28;20376;-68
2021/05/16 10:40:04;;;;;;;1.65;0.08;;;;;;;;;;5075937;28;20036;-67
2021/05/16 10:42:35;;;;;;;1.92;0.52;;;;;;;;;;5093587;28;20020;-69
2021/05/16 10:45:02;;;;;;;3.75;0.70;;;;;;;;;;5094093;28;20028;-67
2021/05/16 10:47:44;;;;;;;5.03;0.57;;;;;;;;;;5093731;28;20419;-67
2021/05/16 10:50:11;;;;;;;3.08;0.30;;;;;;;;;;5093941;28;20131;-67
2021/05/16 10:52:38;;;;;;;4.97;0.90;;;;;;;;;;5093716;28;20024;-68
2021/05/16 10:55:05;;;;;;;3.85;0.47;;;;;;;;;;5093629;28;20065;-68
2021/05/16 10:57:31;;;;;;;;;;;;;;;;;;5094814;28;20055;-68
2021/05/16 10:59:57;;;;;;;1.92;0.40;;;;;;;;;;5094230;28;19957;-68
2021/05/16 11:02:42;;;;;;;1.20;0.05;;;;;;;;;;5093260;28;20028;-68
2021/05/16 11:05:08;;;;;;;2.13;0.52;;;;;;;;;;5093819;28;20024;-68
2021/05/16 11:07:35;;;;;;;6.35;0.70;;;;;;;;;;5093792;28;20146;-67
2021/05/16 11:10:20;;;;;;;0.85;0.47;;;;;;;;;;5093561;28;20054;-67
2021/05/16 11:12:46;;;;;;;3.25;0.65;;;;;;;;;;5093995;28;20028;-67
2021/05/16 11:15:25;;;;;;;4.95;0.80;;;;;;;;;;5093978;28;20031;-68
2021/05/16 11:17:52;;;;;;;3.72;1.20;;;;;;;;;;5093456;28;20528;-68
2021/05/16 11:20:18;;;;;;;5.47;1.80;;;;;;;;;;5093672;28;20032;-68
2021/05/16 11:22:45;;;;;;;3.00;0.30;;;;;;;;;;5075632;28;20077;-67
2021/05/16 11:25:11;;;;;;;2.80;0.50;;;;;;;;;;5093359;28;20047;-68
2021/05/16 11:27:37;;;;;;;2.83;0.83;;;;;;;;;;5096150;28;20109;-66
2021/05/16 11:30:10;;;;;;;3.10;1.10;;;;;;;;;;5097306;28;20272;-68
2021/05/16 11:32:37;;;;;;;3.38;0.25;;;;;;;;;;5097289;28;20033;-68
2021/05/16 11:35:07;;;;;;;2.13;0.47;;;;;;;;;;5097286;28;20024;-68
2021/05/16 11:37:33;;;;;;;0.43;0.25;;;;;;;;;;5097458;28;20042;-69
2021/05/16 11:40:34;;;;;;;3.55;0.52;;;;;;;;;;5097706;28;20384;-68
2021/05/16 11:43:08;;;;;;;2.38;0.95;;;;;;;;;;5043651;28;20028;-68
2021/05/16 11:45:39;;;;;;;2.63;0.52;;;;;;;;;;5097014;28;20586;-67
2021/05/16 11:48:05;;;;;;;1.10;0.32;;;;;;;;;;5097509;28;20077;-67
2021/05/16 11:50:42;;;;;;;2.88;0.43;;;;;;;;;;5097430;28;20051;-68
2021/05/16 11:53:08;;;;;;;1.40;0.43;;;;;;;;;;5096944;28;20024;-68
2021/05/16 11:55:34;;;;;;;5.20;0.52;;;;;;;;;;5078930;28;20028;-67
2021/05/16 11:58:01;;;;;;;1.08;0.45;;;;;;;;;;5096966;28;20107;-67
2021/05/16 12:00:29;;;;;;;1.77;0.50;;;;;;;;;;5097083;28;20345;-67
2021/05/16 12:03:06;;;;;;;2.53;0.80;;;;;;;;;;5097015;28;20252;-67
2021/05/16 12:05:33;;;;;;;4.13;2.33;;;;;;;;;;5097015;28;20036;-68
2021/05/16 12:07:59;;;;;;;3.58;2.17;;;;;;;;;;5096911;28;20058;-68
2021/05/16 12:10:25;;;;;;;3.47;1.48;;;;;;;;;;5079170;28;20383;-67
2021/05/16 12:12:51;;;;;;;2.83;0.47;;;;;;;;;;5096546;28;20062;-68
2021/05/16 12:15:24;;;;;;;3.30;0.80;;;;;;;;;;5097077;28;20020;-67
2021/05/16 12:17:50;;;;;;;0.95;0.32;;;;;;;;;;5096938;28;20063;-69
2021/05/16 12:20:24;;;;;;;3.60;0.38;;;;;;;;;;5096272;28;20103;-69
2021/05/16 12:22:50;;;;;;;2.92;0.77;;;;;;;;;;5096865;28;20024;-70
2021/05/16 12:25:17;;;;;;;3.60;0.50;;;;;;;;;;5095650;28;20529;-68
2021/05/16 12:27:43;;;;;;;0.50;0.10;;;;;;;;;;5077576;28;20476;-68
2021/05/16 12:30:09;;;;;;;4.00;0.60;;;;;;;;;;5095691;28;20384;-68
2021/05/16 12:32:35;;;;;;;1.77;0.40;;;;;;;;;;5096284;28;20024;-66
2021/05/16 12:35:02;;;;;;;6.60;0.45;;;;;;;;;;5095280;28;20028;-67
2021/05/16 12:37:29;;;;;;;3.33;0.35;;;;;;;;;;5095677;28;20366;-67
2021/05/16 12:39:57;;;;;;;2.15;0.52;;;;;;;;;;5094929;28;20107;-68
2021/05/16 12:42:41;;;;;;;0.70;0.10;;;;;;;;;;5095376;28;20020;-66
2021/05/16 12:45:19;;;;;;;1.85;0.30;;;;;;;;;;5077519;28;20027;-67
2021/05/16 12:47:56;;;;;;;1.20;0.13;;;;;;;;;;5095319;28;20020;-67
2021/05/16 12:50:28;;;;;;;0.45;0.30;;;;;;;;;;5095611;28;20498;-67
2021/05/16 12:52:54;;;;;;;0.60;0.10;;;;;;;;;;5095839;28;20081;-69
2021/05/16 12:55:28;;;;;;;4.40;0.20;;;;;;;;;;5095872;28;20020;-68
2021/05/16 12:58:02;;;;;;;2.60;0.20;;;;;;;;;;5095956;28;20020;-66
2021/05/16 13:00:32;;;;;;;1.50;0.20;;;;;;;;;;5078600;28;20412;-68
2021/05/16 13:03:08;;;;;;;1.98;0.10;;;;;;;;;;5095666;28;20099;-68
2021/05/16 13:05:47;;;;;;;2.63;0.05;;;;;;;;;;5077656;28;20074;-67
2021/05/16 13:08:29;;;;;;;2.17;0.28;;;;;;;;;;5095494;28;20132;-67
2021/05/16 13:10:56;;;;;;;3.80;0.50;;;;;;;;;;5095847;28;20043;-66
2021/05/16 13:13:22;;;;;;;1.33;0.28;;;;;;;;;;5095355;28;20380;-65
2021/05/16 13:15:52;;;;;;;2.80;0.60;;;;;;;;;;5095410;28;20027;-67
2021/05/16 13:18:25;;;;;;;2.67;0.55;;;;;;;;;;5077725;28;20028;-67
2021/05/16 13:20:51;;;;;;;0.40;0.10;;;;;;;;;;5095549;28;20024;-67
2021/05/16 13:23:18;;;;;;;2.67;0.32;;;;;;;;;;5095462;28;20103;-67
2021/05/16 13:25:45;;;;;;;1.65;0.20;;;;;;;;;;5095429;28;20099;-66
2021/05/16 13:28:15;;;;;;;;;;;;;;;;;;5095736;28;20020;-68
2021/05/16 13:30:41;;;;;;;2.40;0.30;;;;;;;;;;5095042;28;19999;-69
2021/05/16 13:33:11;;;;;;;0.37;0.00;;;;;;;;;;5095302;28;20016;-66
2021/05/16 13:35:37;;;;;;;3.40;0.30;;;;;;;;;;5096068;28;20241;-67
2021/05/16 13:38:03;;;;;;;1.17;0.10;;;;;;;;;;5094891;28;20034;-66
2021/05/16 13:40:29;;;;;;;0.82;0.10;;;;;;;;;;5095179;28;20161;-66
2021/05/16 13:42:57;;;;;;;2.65;0.10;;;;;;;;;;5076776;28;20024;-66
2021/05/16 13:45:23;;;;;;;0.32;0.00;;;;;;;;;;5095212;28;20020;-67
2021/05/16 13:47:49;;;;;;;1.95;0.25;;;;;;;;;;5095292;28;20020;-65
2021/05/16 13:50:16;;;;;;;0.82;0.22;;;;;;;;;;5093528;28;20500;-66
2021/05/16 13:52:43;;;;;;;2.92;0.30;;;;;;;;;;5095212;28;20016;-67
2021/05/16 13:55:09;;;;;;;1.73;0.10;;;;;;;;;;5094968;28;20027;-67
2021/05/16 13:57:35;;;;;;;0.93;0.00;;;;;;;;;;5094563;28;20031;-65
2021/05/16 14:00:01;;;;;;;3.17;0.10;;;;;;;;;;5094737;28;20245;-69
2021/05/16 14:02:27;;;;;;;2.50;0.10;;;;;;;;;;5094453;28;20080;-70
2021/05/16 14:04:53;;;;;;;1.00;0.00;;;;;;;;;;5094452;28;20024;-69
2021/05/16 14:07:20;;;;;;;1.88;0.08;;;;;;;;;;5094909;28;20062;-69
2021/05/16 14:09:46;;;;;;;0.40;0.20;;;;;;;;;;5094537;28;20020;-68
2021/05/16 14:12:12;;;;;;;1.33;0.10;;;;;;;;;;5076077;28;20043;-68
2021/05/16 14:14:38;;;;;;;0.75;0.00;;;;;;;;;;5094602;28;20056;-69
2021/05/16 14:17:04;;;;;;;2.72;0.10;;;;;;;;;;5094207;28;20422;-69
2021/05/16 14:19:30;;;;;;;0.52;0.10;;;;;;;;;;5094179;28;20020;-69
2021/05/16 14:21:56;;;;;;;0.95;0.10;;;;;;;;;;5094391;28;20016;-68
2021/05/16 14:24:22;;;;;;;0.95;0.20;;;;;;;;;;5094435;28;20028;-69
2021/05/16 14:26:49;;;;;;;0.90;0.05;;;;;;;;;;5094042;28;20020;-69
2021/05/16 14:29:15;;;;;;;1.45;0.30;;;;;;;;;;5094280;28;20342;-68
2021/05/16 14:31:41;;;;;;;1.70;0.15;;;;;;;;;;5094176;28;20032;-69
2021/05/16 14:34:07;;;;;;;1.17;0.30;;;;;;;;;;5094017;28;20016;-69
2021/05/16 14:36:33;;;;;;;3.17;0.95;;;;;;;;;;5094207;28;20024;-67
2021/05/16 14:39:00;;;;;;;7.53;2.22;;;;;;;;;;5093878;28;20024;-68
2021/05/16 14:41:26;;;;;;;0.88;0.10;;;;;;;;;;5094314;28;20028;-69
2021/05/16 14:43:54;;;;;;;1.38;0.30;;;;;;;;;;5094066;28;20358;-67
2021/05/16 14:46:26;;;;;;;1.90;0.30;;;;;;;;;;5093759;28;20020;-69